createdAt,value
2022-09-12T00:00:51.216Z,101813.34
2022-09-12T00:03:17.854Z,101812.16
2022-09-12T00:05:45.946Z,101814.34
2022-09-12T00:08:13.358Z,101809.81
2022-09-12T00:10:42.442Z,101811.22
2022-09-12T00:13:09.744Z,101800.22
2022-09-12T00:15:41.263Z,101801.28
2022-09-12T00:18:09.881Z,101792.66
2022-09-12T00:20:36.351Z,101795.94
2022-09-12T00:23:02.997Z,101794.41
2022-09-12T00:25:31.264Z,101784.59
2022-09-12T00:27:57.807Z,101781.91
2022-09-12T00:30:24.318Z,101784.53
2022-09-12T00:32:51.625Z,101783.34
2022-09-12T00:35:18.107Z,101780.22
2022-09-12T00:37:44.657Z,101786.56
2022-09-12T00:40:11.452Z,101789.94
2022-09-12T00:42:37.986Z,101786.22
2022-09-12T00:45:04.779Z,101788.03
2022-09-12T00:47:32.969Z,101781.25
2022-09-12T00:50:13.670Z,101781.50
2022-09-12T00:52:46.360Z,101769.81
2022-09-12T00:55:18.271Z,101776.94
2022-09-12T00:57:50.532Z,101771.63
2022-09-12T01:00:20.665Z,101778.25
2022-09-12T01:02:53.160Z,101776.34
2022-09-12T01:05:21.364Z,101767.28
2022-09-12T01:07:50.213Z,101765.75
2022-09-12T01:10:16.776Z,101764.16
2022-09-12T01:12:44.235Z,101773.09
2022-09-12T01:15:11.926Z,101767.47
2022-09-12T01:17:51.884Z,101767.78
2022-09-12T01:20:50.498Z,101759.50
2022-09-12T01:24:11.752Z,101760.97
2022-09-12T01:26:49.048Z,101767.31
2022-09-12T01:29:50.853Z,101758.59
2022-09-12T01:32:43.629Z,101754.78
2022-09-12T01:35:25.710Z,101750.97
2022-09-12T01:37:59.371Z,101741.91
2022-09-12T01:40:38.496Z,101744.09
2022-09-12T01:43:37.917Z,101741.75
2022-09-12T01:46:16.126Z,101746.22
2022-09-12T01:48:49.252Z,101733.03
2022-09-12T01:51:33.343Z,101735.56
2022-09-12T01:54:14.021Z,101736.66
2022-09-12T01:56:44.050Z,101735.81
2022-09-12T01:59:31.668Z,101725.69
2022-09-12T02:02:03.537Z,101721.13
2022-09-12T02:04:34.842Z,101721.44
2022-09-12T02:07:16.345Z,101718.41
2022-09-12T02:09:42.803Z,101712.06
2022-09-12T02:12:12.738Z,101710.78
2022-09-12T02:14:46.649Z,101709.63
2022-09-12T02:17:15.465Z,101709.94
2022-09-12T02:19:51.395Z,101704.59
2022-09-12T02:22:21.820Z,101705.38
2022-09-12T02:24:56.967Z,101697.44
2022-09-12T02:27:33.201Z,101698.09
2022-09-12T02:30:00.209Z,101691.34
2022-09-12T02:32:38.231Z,101696.16
2022-09-12T02:35:18.377Z,101702.06
2022-09-12T02:37:47.962Z,101711.31
2022-09-12T02:40:14.900Z,101698.56
2022-09-12T02:42:41.724Z,101702.63
2022-09-12T02:45:09.410Z,101704.81
2022-09-12T02:47:40.331Z,101700.25
2022-09-12T02:50:08.189Z,101690.44
2022-09-12T02:52:36.054Z,101697.19
2022-09-12T02:55:05.762Z,101688.81
2022-09-12T02:57:32.707Z,101683.94
2022-09-12T03:00:01.488Z,101687.66
2022-09-12T03:02:45.851Z,101683.81
2022-09-12T03:05:27.072Z,101684.91
2022-09-12T03:08:22.462Z,101680.44
2022-09-12T03:11:28.503Z,101677.41
2022-09-12T03:14:14.978Z,101684.81
2022-09-12T03:17:03.231Z,101681.78
2022-09-12T03:19:32.658Z,101679.84
2022-09-12T03:22:18.155Z,101675.72
2022-09-12T03:25:14.639Z,101680.94
2022-09-12T03:27:49.504Z,101677.47
2022-09-12T03:30:16.140Z,101674.09
2022-09-12T03:32:43.866Z,101672.88
2022-09-12T03:35:11.686Z,101669.84
2022-09-12T03:37:38.405Z,101671.69
2022-09-12T03:40:06.802Z,101671.25
2022-09-12T03:42:33.352Z,101668.97
2022-09-12T03:44:59.865Z,101670.38
2022-09-12T03:47:26.385Z,101661.78
2022-09-12T03:49:52.902Z,101659.09
2022-09-12T03:52:19.827Z,101659.09
2022-09-12T03:54:46.321Z,101656.03
2022-09-12T03:57:12.790Z,101660.19
2022-09-12T03:59:39.324Z,101656.03
2022-09-12T04:02:06.060Z,101655.16
2022-09-12T04:04:32.769Z,101654.41
2022-09-12T04:06:59.299Z,101652.88
2022-09-12T04:09:25.915Z,101645.81
2022-09-12T04:11:52.406Z,101647.66
2022-09-12T04:14:18.907Z,101642.75
2022-09-12T04:16:45.445Z,101653.56
2022-09-12T04:19:12.164Z,101649.09
2022-09-12T04:21:39.588Z,101648.19
2022-09-12T04:24:06.094Z,101648.19
2022-09-12T04:26:32.610Z,101651.91
2022-09-12T04:29:01.797Z,101652.22
2022-09-12T04:31:28.310Z,101649.63
2022-09-12T04:34:00.469Z,101646.69
2022-09-12T04:36:33.184Z,101651.81
2022-09-12T04:39:00.821Z,101648.00
2022-09-12T04:41:30.227Z,101649.88
2022-09-12T04:43:59.562Z,101648.44
2022-09-12T04:46:26.438Z,101647.56
2022-09-12T04:48:56.641Z,101642.69
2022-09-12T04:51:27.949Z,101640.06
2022-09-12T04:54:01.004Z,101636.25
2022-09-12T04:56:29.121Z,101639.63
2022-09-12T04:59:00.529Z,101647.13
2022-09-12T05:01:28.458Z,101641.91
2022-09-12T05:03:56.093Z,101633.19
2022-09-12T05:06:25.418Z,101631.34
2022-09-12T05:08:53.237Z,101631.34
2022-09-12T05:11:26.573Z,101636.56
2022-09-12T05:13:57.434Z,101642.34
2022-09-12T05:16:25.928Z,101643.31
2022-09-12T05:18:52.678Z,101641.03
2022-09-12T05:21:22.888Z,101636.56
2022-09-12T05:23:53.447Z,101639.72
2022-09-12T05:26:21.463Z,101633.00
2022-09-12T05:28:49.387Z,101638.31
2022-09-12T05:31:21.959Z,101643.97
2022-09-12T05:33:50.400Z,101647.00
2022-09-12T05:36:21.973Z,101639.94
2022-09-12T05:38:48.713Z,101635.47
2022-09-12T05:41:21.883Z,101640.06
2022-09-12T05:43:55.728Z,101635.47
2022-09-12T05:46:25.790Z,101629.47
2022-09-12T05:48:56.328Z,101635.47
2022-09-12T05:51:33.294Z,101637.00
2022-09-12T05:54:01.418Z,101647.22
2022-09-12T05:56:30.050Z,101646.06
2022-09-12T05:58:59.007Z,101632.97
2022-09-12T06:01:27.383Z,101640.91
2022-09-12T06:03:56.212Z,101631.97
2022-09-12T06:06:24.567Z,101640.34
2022-09-12T06:08:53.480Z,101639.16
2022-09-12T06:11:22.960Z,101641.00
2022-09-12T06:13:51.012Z,101631.66
2022-09-12T06:16:23.159Z,101644.38
2022-09-12T06:18:54.435Z,101646.56
2022-09-12T06:21:22.643Z,101641.00
2022-09-12T06:23:49.579Z,101644.94
2022-09-12T06:26:21.465Z,101640.03
2022-09-12T06:28:48.095Z,101639.28
2022-09-12T06:31:17.540Z,101651.31
2022-09-12T06:33:47.381Z,101633.72
2022-09-12T06:36:23.068Z,101634.53
2022-09-12T06:38:55.249Z,101633.13
2022-09-12T06:41:22.084Z,101636.28
2022-09-12T06:43:48.642Z,101645.97
2022-09-12T06:46:15.142Z,101635.63
2022-09-12T06:48:42.413Z,101634.31
2022-09-12T06:51:14.830Z,101628.50
2022-09-12T06:53:42.385Z,101637.63
2022-09-12T06:56:13.606Z,101640.94
2022-09-12T06:58:41.102Z,101648.78
2022-09-12T07:01:16.338Z,101632.84
2022-09-12T07:03:47.093Z,101630.88
2022-09-12T07:06:15.906Z,101622.97
2022-09-12T07:08:42.509Z,101621.88
2022-09-12T07:11:21.180Z,101619.44
2022-09-12T07:13:50.442Z,101622.25
2022-09-12T07:16:20.004Z,101621.25
2022-09-12T07:18:51.445Z,101628.41
2022-09-12T07:21:18.038Z,101623.09
2022-09-12T07:23:45.562Z,101634.75
2022-09-12T07:26:13.318Z,101633.03
2022-09-12T07:28:40.185Z,101625.44
2022-09-12T07:31:08.987Z,101620.13
2022-09-12T07:33:36.400Z,101625.44
2022-09-12T07:36:04.838Z,101633.53
2022-09-12T07:38:31.450Z,101633.19
2022-09-12T07:40:58.756Z,101631.53
2022-09-12T07:43:25.490Z,101630.78
2022-09-12T07:45:56.605Z,101626.56
2022-09-12T07:48:23.681Z,101621.06
2022-09-12T07:51:00.936Z,101630.59
2022-09-12T07:53:32.719Z,101632.38
2022-09-12T07:55:59.531Z,101642.03
2022-09-12T07:58:26.762Z,101642.19
2022-09-12T08:00:53.675Z,101644.53
2022-09-12T08:03:20.653Z,101640.88
2022-09-12T08:05:47.239Z,101644.97
2022-09-12T08:08:13.834Z,101640.63
2022-09-12T08:10:40.428Z,101633.03
2022-09-12T08:13:10.835Z,101640.88
2022-09-12T08:15:37.821Z,101636.09
2022-09-12T08:18:04.435Z,101638.50
2022-09-12T08:20:31.117Z,101639.41
2022-09-12T08:22:57.673Z,101649.22
2022-09-12T08:25:24.221Z,101636.53
2022-09-12T08:27:50.733Z,101636.16
2022-09-12T08:30:17.578Z,101638.03
2022-09-12T08:32:44.176Z,101640.13
2022-09-12T08:35:10.875Z,101647.50
2022-09-12T08:37:37.386Z,101632.91
2022-09-12T08:40:06.821Z,101638.22
2022-09-12T08:42:57.223Z,101636.75
2022-09-12T08:45:38.489Z,101640.25
2022-09-12T08:48:08.964Z,101639.50
2022-09-12T08:50:35.884Z,101639.50
2022-09-12T08:53:13.051Z,101633.63
2022-09-12T08:55:53.561Z,101644.88
2022-09-12T08:58:27.373Z,101634.47
2022-09-12T09:01:13.849Z,101637.25
2022-09-12T09:04:02.129Z,101634.09
2022-09-12T09:07:06.270Z,101629.69
2022-09-12T09:09:54.915Z,101624.03
2022-09-12T09:12:33.655Z,101613.69
2022-09-12T09:15:25.496Z,101616.72
2022-09-12T09:17:58.149Z,101616.25
2022-09-12T09:20:28.740Z,101614.72
2022-09-12T09:23:01.284Z,101612.19
2022-09-12T09:25:41.004Z,101614.31
2022-09-12T09:28:17.642Z,101612.03
2022-09-12T09:30:45.197Z,101602.78
2022-09-12T09:33:38.364Z,101604.06
2022-09-12T09:36:25.322Z,101601.47
2022-09-12T09:39:22.042Z,101602.75
2022-09-12T09:42:13.157Z,101601.25
2022-09-12T09:44:40.111Z,101595.94
2022-09-12T09:47:06.575Z,101600.94
2022-09-12T09:49:36.193Z,101597.84
2022-09-12T09:52:03.596Z,101600.06
2022-09-12T09:54:37.688Z,101599.19
2022-09-12T09:57:05.203Z,101593.19
2022-09-12T09:59:33.921Z,101598.28
2022-09-12T10:02:24.209Z,101583.69
2022-09-12T10:04:57.197Z,101585.22
2022-09-12T10:07:25.356Z,101579.94
2022-09-12T10:10:16.542Z,101577.63
2022-09-12T10:12:43.816Z,101572.81
2022-09-12T10:15:26.233Z,101565.06
2022-09-12T10:17:54.810Z,101564.63
2022-09-12T10:20:40.384Z,101563.03
2022-09-12T10:23:19.157Z,101564.16
2022-09-12T10:25:53.899Z,101566.38
2022-09-12T10:28:28.712Z,101559.22
2022-09-12T10:30:56.698Z,101558.69
2022-09-12T10:33:26.450Z,101554.22
2022-09-12T10:35:55.031Z,101549.94
2022-09-12T10:38:32.352Z,101549.81
2022-09-12T10:41:06.677Z,101540.59
2022-09-12T10:43:33.142Z,101539.97
2022-09-12T10:46:19.726Z,101532.19
2022-09-12T10:48:50.848Z,101526.81
2022-09-12T10:51:28.729Z,101526.22
2022-09-12T10:53:56.940Z,101524.75
2022-09-12T10:56:28.819Z,101525.59
2022-09-12T10:59:11.913Z,101515.22
2022-09-12T11:01:44.324Z,101515.44
2022-09-12T11:04:47.896Z,101514.03
2022-09-12T11:07:46.080Z,101511.31
2022-09-12T11:10:44.662Z,101516.41
2022-09-12T11:13:23.714Z,101508.88
2022-09-12T11:15:58.342Z,101509.47
2022-09-12T11:19:07.035Z,101516.00
2022-09-12T11:21:51.730Z,101510.66
2022-09-12T11:24:37.687Z,101504.97
2022-09-12T11:27:41.754Z,101510.16
2022-09-12T11:30:14.902Z,101513.50
2022-09-12T11:32:47.592Z,101510.22
2022-09-12T11:35:25.198Z,101508.56
2022-09-12T11:38:26.796Z,101506.09
2022-09-12T11:41:03.598Z,101511.63
2022-09-12T11:43:45.474Z,101494.72
2022-09-12T11:46:38.553Z,101506.88
2022-09-12T11:49:13.545Z,101507.34
2022-09-12T11:51:46.452Z,101511.03
2022-09-12T11:54:26.202Z,101515.22
2022-09-12T11:57:08.577Z,101508.09
2022-09-12T12:00:20.727Z,101503.00
2022-09-12T12:03:13.844Z,101505.97
2022-09-12T12:05:53.641Z,101494.53
2022-09-12T12:08:24.972Z,101491.50
2022-09-12T12:11:00.873Z,101483.75
2022-09-12T12:13:32.676Z,101479.44
2022-09-12T12:16:08.506Z,101478.53
2022-09-12T12:18:39.005Z,101482.78
2022-09-12T12:21:37.994Z,101482.44
2022-09-12T12:24:15.466Z,101477.69
2022-09-12T12:27:04.860Z,101478.88
2022-09-12T12:29:31.318Z,101476.94
2022-09-12T12:32:03.773Z,101485.16
2022-09-12T12:34:34.762Z,101475.50
2022-09-12T12:37:19.709Z,101471.09
2022-09-12T12:39:47.975Z,101475.84
2022-09-12T12:42:33.340Z,101467.72
2022-09-12T12:45:09.528Z,101453.22
2022-09-12T12:47:35.960Z,101453.56
2022-09-12T12:50:26.577Z,101452.81
2022-09-12T12:53:27.658Z,101457.38
2022-09-12T12:55:56.150Z,101457.69
2022-09-12T12:58:38.237Z,101452.91
2022-09-12T13:01:17.199Z,101449.16
2022-09-12T13:03:47.022Z,101445.19
2022-09-12T13:06:38.396Z,101439.44
2022-09-12T13:09:09.484Z,101442.03
2022-09-12T13:11:39.455Z,101414.78
2022-09-12T13:14:34.647Z,101425.94
2022-09-12T13:17:06.087Z,101412.81
2022-09-12T13:19:36.232Z,101408.47
2022-09-12T13:22:04.820Z,101404.19
2022-09-12T13:24:31.690Z,101403.03
2022-09-12T13:26:58.613Z,101401.44
2022-09-12T13:29:27.197Z,101395.84
2022-09-12T13:31:55.505Z,101387.25
2022-09-12T13:34:30.425Z,101395.72
2022-09-12T13:37:28.768Z,101395.13
2022-09-12T13:40:18.113Z,101388.75
2022-09-12T13:42:48.720Z,101383.94
2022-09-12T13:45:21.468Z,101379.50
2022-09-12T13:48:02.157Z,101384.34
2022-09-12T13:50:33.395Z,101380.88
2022-09-12T13:53:03.991Z,101386.75
2022-09-12T13:55:32.530Z,101377.00
2022-09-12T13:58:02.019Z,101380.97
2022-09-12T14:00:31.449Z,101358.06
2022-09-12T14:03:18.341Z,101374.94
2022-09-12T14:05:55.175Z,101364.50
2022-09-12T14:08:23.876Z,101368.22
2022-09-12T14:10:55.054Z,101364.06
2022-09-12T14:13:25.305Z,101362.69
2022-09-12T14:15:55.068Z,101362.47
2022-09-12T14:18:27.749Z,101364.19
2022-09-12T14:20:57.128Z,101362.06
2022-09-12T14:23:29.638Z,101357.44
2022-09-12T14:26:05.804Z,101353.69
2022-09-12T14:28:35.000Z,101345.72
2022-09-12T14:31:32.026Z,101350.88
2022-09-12T14:34:16.354Z,101345.78
2022-09-12T14:36:51.633Z,101335.25
2022-09-12T14:39:41.667Z,101338.19
2022-09-12T14:42:15.261Z,101326.91
2022-09-12T14:44:52.412Z,101327.91
2022-09-12T14:47:23.962Z,101315.13
2022-09-12T14:49:51.848Z,101312.19
2022-09-12T14:52:30.831Z,101316.84
2022-09-12T14:55:19.639Z,101322.00
2022-09-12T14:57:48.027Z,101321.47
2022-09-12T15:00:21.185Z,101322.47
2022-09-12T15:02:49.404Z,101317.06
2022-09-12T15:05:21.810Z,101317.25
2022-09-12T15:07:53.976Z,101312.34
2022-09-12T15:10:25.804Z,101315.25
2022-09-12T15:13:17.292Z,101309.16
2022-09-12T15:15:46.891Z,101304.97
2022-09-12T15:18:14.083Z,101310.09
2022-09-12T15:20:43.069Z,101304.91
2022-09-12T15:23:31.125Z,101308.13
2022-09-12T15:25:57.678Z,101305.19
2022-09-12T15:28:25.139Z,101309.81
2022-09-12T15:30:54.689Z,101302.88
2022-09-12T15:33:24.164Z,101295.72
2022-09-12T15:35:53.691Z,101284.44
2022-09-12T15:38:24.395Z,101288.78
2022-09-12T15:40:53.972Z,101277.25
2022-09-12T15:43:24.998Z,101281.16
2022-09-12T15:45:52.394Z,101285.31
2022-09-12T15:48:20.668Z,101278.41
2022-09-12T15:50:47.408Z,101286.03
2022-09-12T15:53:16.329Z,101278.38
2022-09-12T15:55:43.694Z,101276.69
2022-09-12T15:58:10.719Z,101276.94
2022-09-12T16:00:37.343Z,101270.88
2022-09-12T16:03:04.285Z,101269.41
2022-09-12T16:05:31.172Z,101264.38
2022-09-12T16:07:57.660Z,101262.03
2022-09-12T16:10:30.351Z,101260.81
2022-09-12T16:12:58.302Z,101259.16
2022-09-12T16:15:27.908Z,101255.94
2022-09-12T16:17:54.506Z,101257.28
2022-09-12T16:20:23.012Z,101265.44
2022-09-12T16:22:52.121Z,101252.66
2022-09-12T16:25:18.689Z,101253.13
2022-09-12T16:27:45.312Z,101250.81
2022-09-12T16:30:14.508Z,101242.84
2022-09-12T16:32:41.335Z,101239.53
2022-09-12T16:35:11.412Z,101244.31
2022-09-12T16:37:38.131Z,101238.34
2022-09-12T16:40:05.893Z,101245.75
2022-09-12T16:42:37.408Z,101238.78
2022-09-12T16:45:05.683Z,101239.13
2022-09-12T16:47:33.115Z,101244.81
2022-09-12T16:49:59.905Z,101239.94
2022-09-12T16:52:26.470Z,101234.91
2022-09-12T16:54:53.013Z,101242.69
2022-09-12T16:57:19.702Z,101245.94
2022-09-12T16:59:46.277Z,101235.97
2022-09-12T17:02:14.009Z,101222.13
2022-09-12T17:04:40.675Z,101209.44
2022-09-12T17:07:07.436Z,101214.16
2022-09-12T17:09:34.323Z,101203.41
2022-09-12T17:12:00.997Z,101207.66
2022-09-12T17:14:27.511Z,101204.31
2022-09-12T17:16:54.395Z,101201.88
2022-09-12T17:19:26.775Z,101208.09
2022-09-12T17:21:54.127Z,101197.78
2022-09-12T17:24:21.705Z,101193.97
2022-09-12T17:26:51.019Z,101191.03
2022-09-12T17:29:23.321Z,101178.03
2022-09-12T17:31:50.433Z,101185.66
2022-09-12T17:34:17.868Z,101178.25
2022-09-12T17:36:47.303Z,101177.59
2022-09-12T17:39:14.813Z,101186.50
2022-09-12T17:41:42.937Z,101198.44
2022-09-12T17:44:15.463Z,101201.28
2022-09-12T17:46:44.980Z,101194.88
2022-09-12T17:49:18.789Z,101196.50
2022-09-12T17:51:48.711Z,101208.53
2022-09-12T17:54:18.846Z,101200.97
2022-09-12T17:56:48.899Z,101202.25
2022-09-12T17:59:21.562Z,101201.38
2022-09-12T18:02:10.322Z,101197.59
2022-09-12T18:04:38.253Z,101202.75
2022-09-12T18:07:06.081Z,101190.69
2022-09-12T18:09:32.760Z,101189.75
2022-09-12T18:11:59.739Z,101191.66
2022-09-12T18:14:28.288Z,101192.16
2022-09-12T18:16:57.179Z,101199.47
2022-09-12T18:19:24.617Z,101201.47
2022-09-12T18:21:51.162Z,101203.63
2022-09-12T18:24:17.909Z,101217.31
2022-09-12T18:26:44.966Z,101213.31
2022-09-12T18:29:12.520Z,101215.78
2022-09-12T18:31:39.228Z,101212.84
2022-09-12T18:34:06.870Z,101208.19
2022-09-12T18:37:24.882Z,101215.88
2022-09-12T18:39:51.759Z,101218.75
2022-09-12T18:42:18.477Z,101218.63
2022-09-12T18:44:47.463Z,101221.72
2022-09-12T18:47:14.038Z,101212.38
2022-09-12T18:49:41.590Z,101205.31
2022-09-12T18:52:09.627Z,101211.81
2022-09-12T18:54:37.453Z,101201.88
2022-09-12T18:57:04.374Z,101199.41
2022-09-12T18:59:30.958Z,101199.81
2022-09-12T19:01:59.129Z,101201.91
2022-09-12T19:04:26.052Z,101201.78
2022-09-12T19:06:52.893Z,101198.97
2022-09-12T19:09:25.757Z,101198.06
2022-09-12T19:11:52.724Z,101183.91
2022-09-12T19:14:26.069Z,101176.94
2022-09-12T19:16:53.145Z,101164.69
2022-09-12T19:19:21.545Z,101171.97
2022-09-12T19:21:52.849Z,101175.22
2022-09-12T19:24:22.265Z,101167.44
2022-09-12T19:26:49.796Z,101155.56
2022-09-12T19:29:16.805Z,101161.03
2022-09-12T19:31:45.778Z,101153.63
2022-09-12T19:34:14.856Z,101151.16
2022-09-12T19:37:22.258Z,101157.06
2022-09-12T19:39:47.137Z,101157.69
2022-09-12T19:42:13.945Z,101151.78
2022-09-12T19:44:40.639Z,101145.53
2022-09-12T19:47:16.623Z,101157.72
2022-09-12T19:49:43.233Z,101150.00
2022-09-12T19:52:17.359Z,101162.97
2022-09-12T19:54:45.556Z,101160.38
2022-09-12T19:57:12.367Z,101165.41
2022-09-12T19:59:39.098Z,101182.19
2022-09-12T20:02:05.963Z,101175.06
2022-09-12T20:04:32.567Z,101166.50
2022-09-12T20:06:59.092Z,101173.03
2022-09-12T20:09:25.612Z,101171.56
2022-09-12T20:11:54.864Z,101157.72
2022-09-12T20:14:22.250Z,101158.53
2022-09-12T20:16:48.866Z,101153.28
2022-09-12T20:19:15.474Z,101151.88
2022-09-12T20:21:42.006Z,101140.56
2022-09-12T20:24:13.659Z,101132.34
2022-09-12T20:26:40.968Z,101142.66
2022-09-12T20:29:08.266Z,101145.88
2022-09-12T20:31:37.126Z,101136.50
2022-09-12T20:34:04.606Z,101128.22
2022-09-12T20:36:31.052Z,101129.75
2022-09-12T20:39:01.281Z,101130.63
2022-09-12T20:41:30.470Z,101128.84
2022-09-12T20:43:57.401Z,101142.94
2022-09-12T20:46:26.007Z,101148.31
2022-09-12T20:48:52.921Z,101146.09
2022-09-12T20:51:20.492Z,101154.81
2022-09-12T20:53:47.735Z,101146.22
2022-09-12T20:56:15.255Z,101141.41
2022-09-12T20:58:44.014Z,101147.19
2022-09-12T21:01:12.382Z,101144.56
2022-09-12T21:03:39.688Z,101153.31
2022-09-12T21:06:07.584Z,101157.19
2022-09-12T21:08:34.787Z,101154.59
2022-09-12T21:11:01.797Z,101151.25
2022-09-12T21:13:28.529Z,101152.75
2022-09-12T21:16:00.638Z,101150.53
2022-09-12T21:18:27.327Z,101141.56
2022-09-12T21:20:55.473Z,101135.91
2022-09-12T21:23:23.254Z,101128.41
2022-09-12T21:25:52.707Z,101120.19
2022-09-12T21:28:20.237Z,101124.72
2022-09-12T21:30:50.483Z,101127.81
2022-09-12T21:33:18.487Z,101134.28
2022-09-12T21:35:45.367Z,101140.03
2022-09-12T21:38:11.943Z,101143.06
2022-09-12T21:40:38.427Z,101139.69
2022-09-12T21:43:08.141Z,101146.16
2022-09-12T21:45:37.054Z,101148.13
2022-09-12T21:48:03.690Z,101153.03
2022-09-12T21:50:30.428Z,101156.47
2022-09-12T21:52:56.914Z,101161.00
2022-09-12T21:55:27.127Z,101157.28
2022-09-12T21:57:54.466Z,101144.47
2022-09-12T22:00:21.423Z,101143.00
2022-09-12T22:02:48.750Z,101149.78
2022-09-12T22:05:15.421Z,101148.28
2022-09-12T22:07:42.219Z,101156.97
2022-09-12T22:10:09.171Z,101149.84
2022-09-12T22:12:35.764Z,101160.44
2022-09-12T22:15:17.566Z,101145.78
2022-09-12T22:17:54.250Z,101147.31
2022-09-12T22:20:20.681Z,101146.94
2022-09-12T22:23:05.769Z,101143.94
2022-09-12T22:25:32.583Z,101149.22
2022-09-12T22:27:59.050Z,101148.47
2022-09-12T22:30:27.324Z,101145.47
2022-09-12T22:32:53.888Z,101133.78
2022-09-12T22:35:20.994Z,101137.19
2022-09-12T22:37:47.879Z,101132.72
2022-09-12T22:40:15.689Z,101133.50
2022-09-12T22:42:42.317Z,101129.72
2022-09-12T22:45:09.368Z,101125.59
2022-09-12T22:47:36.042Z,101124.84
2022-09-12T22:50:02.661Z,101122.97
2022-09-12T22:52:29.126Z,101126.41
2022-09-12T22:54:55.594Z,101118.50
2022-09-12T22:57:22.068Z,101119.63
2022-09-12T22:59:48.641Z,101118.53
2022-09-12T23:02:15.147Z,101116.66
2022-09-12T23:04:41.669Z,101106.88
2022-09-12T23:07:08.132Z,101106.53
2022-09-12T23:09:35.547Z,101102.34
2022-09-12T23:12:02.574Z,101096.31
2022-09-12T23:14:29.036Z,101093.72
2022-09-12T23:16:55.580Z,101091.50
2022-09-12T23:19:22.117Z,101097.13
2022-09-12T23:21:48.627Z,101099.41
2022-09-12T23:24:15.131Z,101084.72
2022-09-12T23:26:41.608Z,101089.63
2022-09-12T23:29:08.933Z,101099.81
2022-09-12T23:31:35.624Z,101087.00
2022-09-12T23:34:05.962Z,101087.81
2022-09-12T23:36:33.498Z,101090.44
2022-09-12T23:39:00.595Z,101078.78
2022-09-12T23:41:27.242Z,101081.78
2022-09-12T23:43:53.866Z,101084.78
2022-09-12T23:46:21.669Z,101079.19
2022-09-12T23:48:48.870Z,101069.81
2022-09-12T23:51:15.568Z,101067.16
2022-09-12T23:53:42.208Z,101073.19
2022-09-12T23:56:09.148Z,101057.00
2022-09-12T23:58:35.949Z,101063.03
